Time;durP1;ratioP1;P1;durP2;ratioP2;P2;SDS_P1;SDS_P2;PMS_P1;PMS_P2;Temp;Humidity;BMP_temperature;BMP_pressure;BME280_temperature;BME280_humidity;BME280_pressure;Samples;Min_cycle;Max_cycle;Signal;HPM_P1;HPM_P2
2023/12/19 00:01:23;;;;;;;29.90;22.93;;;;;;;;;;4972816;28;20199;-52
2023/12/19 00:03:49;;;;;;;28.30;22.83;;;;;;;;;;4973342;28;20627;-51
2023/12/19 00:06:15;;;;;;;33.63;23.77;;;;;;;;;;4973261;28;20199;-52
2023/12/19 00:08:41;;;;;;;30.17;23.03;;;;;;;;;;4973643;28;20203;-52
2023/12/19 00:11:07;;;;;;;30.33;23.83;;;;;;;;;;4971422;28;20199;-52
2023/12/19 00:13:33;;;;;;;33.57;23.37;;;;;;;;;;4971407;28;20730;-52
2023/12/19 00:16:03;;;;;;;30.33;23.90;;;;;;;;;;4973233;28;20206;-52
2023/12/19 00:18:30;;;;;;;30.63;22.53;;;;;;;;;;4973139;28;20603;-52
2023/12/19 00:20:56;;;;;;;33.53;23.93;;;;;;;;;;4973286;28;20234;-52
2023/12/19 00:23:22;;;;;;;29.17;22.63;;;;;;;;;;4973082;28;20218;-52
2023/12/19 00:25:48;;;;;;;30.50;22.73;;;;;;;;;;4973212;28;20211;-52
2023/12/19 00:28:14;;;;;;;30.33;23.90;;;;;;;;;;4972750;28;20305;-52
2023/12/19 00:30:40;;;;;;;30.53;22.77;;;;;;;;;;4973167;28;20202;-52
2023/12/19 00:33:08;;;;;;;28.53;22.60;;;;;;;;;;4972819;28;20230;-52
2023/12/19 00:35:34;;;;;;;31.93;23.87;;;;;;;;;;4973051;28;20261;-51
2023/12/19 00:38:03;;;;;;;31.00;23.47;;;;;;;;;;4972906;28;20198;-52
2023/12/19 00:40:29;;;;;;;33.70;24.53;;;;;;;;;;4973264;28;20278;-52
2023/12/19 00:42:55;;;;;;;27.43;22.40;;;;;;;;;;4972900;28;20651;-52
2023/12/19 00:45:21;;;;;;;29.93;23.40;;;;;;;;;;4972919;28;20218;-53
2023/12/19 00:47:47;;;;;;;32.37;24.17;;;;;;;;;;4972934;28;20224;-51
2023/12/19 00:50:15;;;;;;;32.47;24.90;;;;;;;;;;4972827;28;20202;-51
2023/12/19 00:52:41;;;;;;;35.43;25.10;;;;;;;;;;4972928;28;20696;-51
2023/12/19 00:55:07;;;;;;;29.40;22.67;;;;;;;;;;4972742;28;20209;-50
2023/12/19 00:57:33;;;;;;;33.67;24.17;;;;;;;;;;4972826;28;20202;-50
2023/12/19 00:59:59;;;;;;;27.17;22.07;;;;;;;;;;4972745;28;20199;-50
2023/12/19 01:02:27;;;;;;;28.07;22.80;;;;;;;;;;4972960;28;20199;-49
2023/12/19 01:04:56;;;;;;;31.90;23.60;;;;;;;;;;4972904;28;20199;-49
2023/12/19 01:07:23;;;;;;;27.90;22.03;;;;;;;;;;4972674;28;20681;-50
2023/12/19 01:09:49;;;;;;;35.40;24.67;;;;;;;;;;4972799;28;20210;-49
2023/12/19 01:12:15;;;;;;;32.10;24.13;;;;;;;;;;4973157;28;20242;-50
2023/12/19 01:14:41;;;;;;;30.63;23.30;;;;;;;;;;4976775;28;20254;-50
2023/12/19 01:17:07;;;;;;;35.37;24.67;;;;;;;;;;4976499;28;20717;-50
2023/12/19 01:19:33;;;;;;;31.30;24.00;;;;;;;;;;4976582;28;20207;-50
2023/12/19 01:21:59;;;;;;;35.83;24.60;;;;;;;;;;4976359;28;20227;-50
2023/12/19 01:24:27;;;;;;;34.63;23.80;;;;;;;;;;4976681;28;20262;-50
2023/12/19 01:26:53;;;;;;;32.37;23.83;;;;;;;;;;4976392;28;20234;-50
2023/12/19 01:29:19;;;;;;;32.27;23.67;;;;;;;;;;4976313;28;20207;-50
2023/12/19 01:31:45;;;;;;;34.67;24.73;;;;;;;;;;4976375;28;20206;-50
2023/12/19 01:34:11;;;;;;;33.73;23.10;;;;;;;;;;4976142;28;20223;-50
2023/12/19 01:36:39;;;;;;;30.57;23.10;;;;;;;;;;4976381;28;20620;-50
2023/12/19 01:39:05;;;;;;;27.77;21.90;;;;;;;;;;4976073;28;20211;-50
2023/12/19 01:41:32;;;;;;;27.43;22.30;;;;;;;;;;4976072;28;20191;-50
2023/12/19 01:43:58;;;;;;;30.23;22.93;;;;;;;;;;4976042;28;20202;-50
2023/12/19 01:46:24;;;;;;;27.70;21.93;;;;;;;;;;4976004;28;20736;-49
2023/12/19 01:48:50;;;;;;;27.10;21.63;;;;;;;;;;4975989;28;20195;-49
2023/12/19 01:51:18;;;;;;;28.27;22.47;;;;;;;;;;4975971;28;20566;-50
2023/12/19 01:53:44;;;;;;;33.63;23.50;;;;;;;;;;4976037;28;20223;-50
2023/12/19 01:56:11;;;;;;;27.50;22.67;;;;;;;;;;4975885;28;20257;-50
2023/12/19 01:58:38;;;;;;;28.10;23.00;;;;;;;;;;4975796;28;20230;-49
2023/12/19 02:01:05;;;;;;;28.23;23.27;;;;;;;;;;4975875;28;20741;-50
2023/12/19 02:03:32;;;;;;;32.93;24.37;;;;;;;;;;4975782;28;20289;-50
2023/12/19 02:05:59;;;;;;;30.77;22.80;;;;;;;;;;4975790;28;20234;-49
2023/12/19 02:08:26;;;;;;;29.33;23.30;;;;;;;;;;4975638;28;20210;-50
2023/12/19 02:10:52;;;;;;;29.50;22.93;;;;;;;;;;4975618;28;20203;-49
2023/12/19 02:13:19;;;;;;;28.83;22.83;;;;;;;;;;4975306;28;20229;-50
2023/12/19 02:15:46;;;;;;;37.40;26.13;;;;;;;;;;4975642;28;20211;-49
2023/12/19 02:18:15;;;;;;;32.40;24.17;;;;;;;;;;4975464;28;20579;-49
2023/12/19 02:20:41;;;;;;;33.80;24.40;;;;;;;;;;4975608;28;20221;-50
2023/12/19 02:23:09;;;;;;;32.73;24.83;;;;;;;;;;4974661;28;20838;-49
2023/12/19 02:25:35;;;;;;;30.03;24.07;;;;;;;;;;4975261;28;20223;-50
2023/12/19 02:28:01;;;;;;;29.70;23.73;;;;;;;;;;4975003;28;20262;-50
2023/12/19 02:30:27;;;;;;;29.20;23.17;;;;;;;;;;4975401;28;20278;-50
2023/12/19 02:32:53;;;;;;;30.40;21.60;;;;;;;;;;4975072;28;20317;-50
2023/12/19 02:35:19;;;;;;;24.93;21.20;;;;;;;;;;4975041;28;20325;-50
2023/12/19 02:37:45;;;;;;;27.83;21.17;;;;;;;;;;4974941;28;20305;-49
2023/12/19 02:40:13;;;;;;;25.10;20.13;;;;;;;;;;4975116;28;20205;-49
2023/12/19 02:42:40;;;;;;;25.07;19.87;;;;;;;;;;4975164;28;20210;-49
2023/12/19 02:45:06;;;;;;;26.60;20.23;;;;;;;;;;4974862;28;20688;-49
2023/12/19 02:47:33;;;;;;;24.07;19.40;;;;;;;;;;4974969;28;20811;-49
2023/12/19 02:49:59;;;;;;;25.17;19.37;;;;;;;;;;4974841;28;20205;-50
2023/12/19 02:52:25;;;;;;;22.83;18.97;;;;;;;;;;4974790;28;20281;-49
2023/12/19 02:54:51;;;;;;;25.20;20.53;;;;;;;;;;4974896;28;20203;-49
2023/12/19 02:57:19;;;;;;;26.40;19.57;;;;;;;;;;4974540;28;20273;-49
2023/12/19 02:59:45;;;;;;;25.17;20.07;;;;;;;;;;4974713;28;20222;-49
2023/12/19 03:02:11;;;;;;;25.23;18.77;;;;;;;;;;4974773;28;20278;-49
2023/12/19 03:04:38;;;;;;;24.63;19.93;;;;;;;;;;4974715;28;20644;-49
2023/12/19 03:07:04;;;;;;;23.67;20.43;;;;;;;;;;4974780;28;20286;-50
2023/12/19 03:09:30;;;;;;;27.00;20.20;;;;;;;;;;4974667;28;20203;-49
2023/12/19 03:11:59;;;;;;;26.23;20.03;;;;;;;;;;4974550;28;20218;-49
2023/12/19 03:14:27;;;;;;;28.67;21.00;;;;;;;;;;4974591;28;20469;-49
2023/12/19 03:16:53;;;;;;;26.63;21.40;;;;;;;;;;4974604;28;20207;-50
2023/12/19 03:19:19;;;;;;;28.53;22.50;;;;;;;;;;4974238;28;20206;-49
2023/12/19 03:21:45;;;;;;;27.60;22.27;;;;;;;;;;4974173;28;20195;-49
2023/12/19 03:24:11;;;;;;;25.57;20.43;;;;;;;;;;4972655;28;20207;-50
2023/12/19 03:26:37;;;;;;;28.73;21.17;;;;;;;;;;4974312;28;20195;-49
2023/12/19 03:29:03;;;;;;;29.70;23.37;;;;;;;;;;4973992;28;20741;-49
2023/12/19 03:31:30;;;;;;;30.53;23.63;;;;;;;;;;4974054;28;20339;-49
2023/12/19 03:33:56;;;;;;;31.77;24.23;;;;;;;;;;4974170;28;20245;-49
2023/12/19 03:36:22;;;;;;;29.53;23.73;;;;;;;;;;4973208;28;20211;-49
2023/12/19 03:38:48;;;;;;;30.53;23.17;;;;;;;;;;4973984;28;20247;-49
2023/12/19 03:41:14;;;;;;;29.73;24.03;;;;;;;;;;4973745;28;20251;-49
2023/12/19 03:43:40;;;;;;;33.60;24.60;;;;;;;;;;4974026;28;20661;-49
2023/12/19 03:46:07;;;;;;;31.83;24.77;;;;;;;;;;4973811;28;20278;-49
2023/12/19 03:48:35;;;;;;;33.60;24.23;;;;;;;;;;4973861;28;20199;-49
2023/12/19 03:51:01;;;;;;;30.97;23.53;;;;;;;;;;4973650;28;20207;-48
2023/12/19 03:53:27;;;;;;;32.60;24.07;;;;;;;;;;4973876;28;20285;-48
2023/12/19 03:55:53;;;;;;;31.30;22.63;;;;;;;;;;4973793;28;20214;-49
2023/12/19 03:58:19;;;;;;;31.70;22.20;;;;;;;;;;4973463;28;20306;-48
2023/12/19 04:00:45;;;;;;;29.57;22.73;;;;;;;;;;4973542;28;20194;-48
2023/12/19 04:03:11;;;;;;;31.93;23.07;;;;;;;;;;4973612;28;20199;-48
2023/12/19 04:05:38;;;;;;;26.33;21.80;;;;;;;;;;4973709;28;20293;-49
2023/12/19 04:08:05;;;;;;;30.57;23.63;;;;;;;;;;4973434;28;20203;-49
2023/12/19 04:10:31;;;;;;;29.73;22.97;;;;;;;;;;4973693;28;20289;-49
2023/12/19 04:12:57;;;;;;;26.33;21.77;;;;;;;;;;4973438;28;20557;-49
2023/12/19 04:15:23;;;;;;;31.47;22.80;;;;;;;;;;4973366;28;20195;-48
2023/12/19 04:17:49;;;;;;;25.83;21.60;;;;;;;;;;4973337;28;20195;-48
2023/12/19 04:20:16;;;;;;;30.77;22.63;;;;;;;;;;4973259;28;20732;-49
2023/12/19 04:22:43;;;;;;;29.17;23.10;;;;;;;;;;4973404;28;20395;-49
2023/12/19 04:25:09;;;;;;;29.63;21.77;;;;;;;;;;4973204;28;20218;-49
2023/12/19 04:27:35;;;;;;;30.73;22.40;;;;;;;;;;4972885;28;20652;-48
2023/12/19 04:30:01;;;;;;;33.37;24.27;;;;;;;;;;4973110;28;20249;-49
2023/12/19 04:32:27;;;;;;;28.80;22.87;;;;;;;;;;4973093;28;20258;-49
2023/12/19 04:34:53;;;;;;;34.13;25.27;;;;;;;;;;4973235;28;20733;-48
2023/12/19 04:37:19;;;;;;;33.70;25.30;;;;;;;;;;4972974;28;20205;-48
2023/12/19 04:39:46;;;;;;;28.50;22.87;;;;;;;;;;4973107;28;20222;-49
2023/12/19 04:42:17;;;;;;;30.33;24.23;;;;;;;;;;4973071;28;20207;-48
2023/12/19 04:44:43;;;;;;;32.37;24.03;;;;;;;;;;4973143;28;20205;-49
2023/12/19 04:47:09;;;;;;;27.93;23.73;;;;;;;;;;4972970;28;20214;-49
2023/12/19 04:49:35;;;;;;;32.37;24.13;;;;;;;;;;4972959;28;20258;-48
2023/12/19 04:52:01;;;;;;;30.90;24.27;;;;;;;;;;4972941;28;20233;-49
2023/12/19 04:54:27;;;;;;;29.00;22.77;;;;;;;;;;4972833;28;20641;-49
2023/12/19 04:56:54;;;;;;;30.33;24.07;;;;;;;;;;4972981;28;20211;-48
2023/12/19 04:59:20;;;;;;;29.43;23.70;;;;;;;;;;4972724;28;20211;-49
2023/12/19 05:01:46;;;;;;;30.63;25.47;;;;;;;;;;4972843;28;20622;-49
2023/12/19 05:04:12;;;;;;;31.40;24.90;;;;;;;;;;4972859;28;20270;-49
2023/12/19 05:06:38;;;;;;;33.37;24.80;;;;;;;;;;4972934;28;20665;-49
2023/12/19 05:09:04;;;;;;;32.57;24.93;;;;;;;;;;4972742;28;20210;-49
2023/12/19 05:11:30;;;;;;;29.73;23.80;;;;;;;;;;4972707;28;20199;-48
2023/12/19 05:13:58;;;;;;;31.00;25.17;;;;;;;;;;4972802;28;20249;-48
2023/12/19 05:16:24;;;;;;;28.53;23.87;;;;;;;;;;4972631;28;20540;-49
2023/12/19 05:18:50;;;;;;;30.20;23.50;;;;;;;;;;4972631;28;20270;-49
2023/12/19 05:21:16;;;;;;;28.90;23.40;;;;;;;;;;4972582;28;20713;-48
2023/12/19 05:23:43;;;;;;;28.93;23.80;;;;;;;;;;4972696;28;20243;-49
2023/12/19 05:26:09;;;;;;;28.20;22.97;;;;;;;;;;4972547;28;20282;-49
2023/12/19 05:28:35;;;;;;;26.13;22.70;;;;;;;;;;4972576;28;20270;-48
2023/12/19 05:31:03;;;;;;;29.57;24.17;;;;;;;;;;4972559;28;20206;-48
2023/12/19 05:33:29;;;;;;;27.87;22.80;;;;;;;;;;4972371;28;20242;-49
2023/12/19 05:35:56;;;;;;;32.67;24.53;;;;;;;;;;4972598;28;20201;-49
2023/12/19 05:38:22;;;;;;;27.80;23.37;;;;;;;;;;4972378;28;20712;-49
2023/12/19 05:40:48;;;;;;;30.33;23.90;;;;;;;;;;4972444;28;21024;-49
2023/12/19 05:43:14;;;;;;;30.63;24.03;;;;;;;;;;4972328;28;20198;-48
2023/12/19 05:45:40;;;;;;;33.40;25.47;;;;;;;;;;4972430;28;20513;-48
2023/12/19 05:48:08;;;;;;;32.30;26.03;;;;;;;;;;4972165;28;20199;-49
2023/12/19 05:50:34;;;;;;;32.13;24.37;;;;;;;;;;4972585;28;20289;-48
2023/12/19 05:53:00;;;;;;;33.23;26.03;;;;;;;;;;4972426;28;20233;-48
2023/12/19 05:55:26;;;;;;;30.23;24.00;;;;;;;;;;4972658;28;20199;-48
2023/12/19 05:57:52;;;;;;;34.43;25.57;;;;;;;;;;4972408;28;20199;-49
2023/12/19 06:00:19;;;;;;;30.50;23.23;;;;;;;;;;4975631;28;20199;-49
2023/12/19 06:02:45;;;;;;;32.03;24.10;;;;;;;;;;4975679;28;20689;-49
2023/12/19 06:05:13;;;;;;;34.10;24.43;;;;;;;;;;4975600;28;20466;-49
2023/12/19 06:07:39;;;;;;;30.37;24.27;;;;;;;;;;4975787;28;20199;-50
2023/12/19 06:10:08;;;;;;;32.20;25.17;;;;;;;;;;4975662;28;20434;-49
2023/12/19 06:12:34;;;;;;;30.70;23.47;;;;;;;;;;4975477;28;20655;-50
2023/12/19 06:15:00;;;;;;;31.70;23.57;;;;;;;;;;4975483;28;20199;-49
2023/12/19 06:17:26;;;;;;;34.40;25.47;;;;;;;;;;4975362;28;20202;-49
2023/12/19 06:19:52;;;;;;;30.40;23.90;;;;;;;;;;4975357;28;20493;-50
2023/12/19 06:22:20;;;;;;;31.80;23.63;;;;;;;;;;4993157;28;20575;-50
2023/12/19 06:24:46;;;;;;;27.40;21.07;;;;;;;;;;4994764;28;20245;-50
2023/12/19 06:27:15;;;;;;;29.60;22.50;;;;;;;;;;4994490;28;20925;-50
2023/12/19 06:29:41;;;;;;;29.10;22.63;;;;;;;;;;4994922;28;20430;-50
2023/12/19 06:32:10;;;;;;;27.93;21.87;;;;;;;;;;4994443;28;20606;-50
2023/12/19 06:34:36;;;;;;;27.57;21.80;;;;;;;;;;4994494;28;20230;-49
2023/12/19 06:37:02;;;;;;;25.70;20.93;;;;;;;;;;4994561;28;20194;-50
2023/12/19 06:39:30;;;;;;;24.73;20.47;;;;;;;;;;4994480;28;20209;-50
2023/12/19 06:41:56;;;;;;;25.63;21.33;;;;;;;;;;4994910;28;20202;-49
2023/12/19 06:44:22;;;;;;;24.77;20.67;;;;;;;;;;4994368;28;20702;-49
2023/12/19 06:46:50;;;;;;;25.47;20.87;;;;;;;;;;4994427;28;20206;-49
2023/12/19 06:49:16;;;;;;;24.17;19.93;;;;;;;;;;4994297;28;20265;-49
2023/12/19 06:51:43;;;;;;;27.20;20.33;;;;;;;;;;4994342;28;20653;-49
2023/12/19 06:54:09;;;;;;;26.70;21.47;;;;;;;;;;4994036;28;20602;-49
2023/12/19 06:56:36;;;;;;;25.47;20.20;;;;;;;;;;4994229;28;20198;-49
2023/12/19 06:59:03;;;;;;;24.37;20.07;;;;;;;;;;4994172;28;20222;-49
2023/12/19 07:01:30;;;;;;;25.93;20.40;;;;;;;;;;4994042;28;20212;-49
2023/12/19 07:03:56;;;;;;;24.13;19.17;;;;;;;;;;4994230;28;20273;-50
2023/12/19 07:06:22;;;;;;;22.13;19.50;;;;;;;;;;4993919;28;20445;-49
2023/12/19 07:08:48;;;;;;;24.17;19.40;;;;;;;;;;4994032;28;20207;-49
2023/12/19 07:11:15;;;;;;;22.50;19.00;;;;;;;;;;4993679;28;20218;-49
2023/12/19 07:13:43;;;;;;;24.10;20.20;;;;;;;;;;4993953;28;20288;-49
2023/12/19 07:16:13;;;;;;;24.00;19.03;;;;;;;;;;4993897;28;20206;-49
2023/12/19 07:18:40;;;;;;;21.33;17.80;;;;;;;;;;4993906;28;20257;-49
2023/12/19 07:21:06;;;;;;;20.17;16.90;;;;;;;;;;4993702;28;20210;-48
2023/12/19 07:23:32;;;;;;;19.47;16.83;;;;;;;;;;4993706;28;20213;-46
2023/12/19 07:25:58;;;;;;;19.53;17.03;;;;;;;;;;4993664;28;20696;-47
2023/12/19 07:28:24;;;;;;;18.57;16.20;;;;;;;;;;4993529;28;20238;-47
2023/12/19 07:30:51;;;;;;;19.63;16.27;;;;;;;;;;4993564;28;20209;-48
2023/12/19 07:33:17;;;;;;;19.80;16.83;;;;;;;;;;4993449;28;20254;-48
2023/12/19 07:35:43;;;;;;;19.37;15.60;;;;;;;;;;4993812;28;20750;-48
2023/12/19 07:38:10;;;;;;;19.37;16.00;;;;;;;;;;4993735;28;20202;-48
2023/12/19 07:40:36;;;;;;;19.40;16.50;;;;;;;;;;4993475;28;20201;-48
2023/12/19 07:43:02;;;;;;;18.80;15.40;;;;;;;;;;4993437;28;20280;-48
2023/12/19 07:45:28;;;;;;;17.47;15.57;;;;;;;;;;4993397;28;20206;-49
2023/12/19 07:47:55;;;;;;;16.93;13.83;;;;;;;;;;4993237;28;20206;-48
2023/12/19 07:50:21;;;;;;;17.67;14.23;;;;;;;;;;4993027;28;20208;-48
2023/12/19 07:52:47;;;;;;;17.10;13.87;;;;;;;;;;4993030;28;20198;-48
2023/12/19 07:55:13;;;;;;;16.93;13.50;;;;;;;;;;4992831;28;20194;-48
2023/12/19 07:57:39;;;;;;;14.60;13.03;;;;;;;;;;4992415;28;20209;-49
2023/12/19 08:00:06;;;;;;;16.27;13.50;;;;;;;;;;4992959;28;20198;-49
2023/12/19 08:02:32;;;;;;;15.17;13.57;;;;;;;;;;4992704;28;20202;-48
2023/12/19 08:04:59;;;;;;;13.60;11.93;;;;;;;;;;4992918;28;20741;-49
2023/12/19 08:07:26;;;;;;;13.03;11.60;;;;;;;;;;4993102;28;20661;-49
2023/12/19 08:09:53;;;;;;;13.10;11.17;;;;;;;;;;4993154;28;20206;-49
2023/12/19 08:12:19;;;;;;;12.70;10.33;;;;;;;;;;4992710;28;20198;-49
2023/12/19 08:14:45;;;;;;;11.30;10.07;;;;;;;;;;4982536;28;20563;-49
2023/12/19 08:17:11;;;;;;;11.27;9.50;;;;;;;;;;4977604;28;20198;-49
2023/12/19 08:19:37;;;;;;;11.50;10.33;;;;;;;;;;4980876;28;20570;-49
2023/12/19 08:22:05;;;;;;;11.17;9.97;;;;;;;;;;4978419;28;20271;-49
2023/12/19 08:24:31;;;;;;;11.07;9.27;;;;;;;;;;4978995;28;20225;-49
2023/12/19 08:26:57;;;;;;;10.43;9.33;;;;;;;;;;4978995;28;20588;-49
2023/12/19 08:29:23;;;;;;;10.63;9.53;;;;;;;;;;4978975;28;20210;-49
2023/12/19 08:31:49;;;;;;;9.67;8.57;;;;;;;;;;4979189;28;20222;-49
2023/12/19 08:34:17;;;;;;;9.10;8.20;;;;;;;;;;4980733;28;20253;-49
2023/12/19 08:36:44;;;;;;;8.70;7.90;;;;;;;;;;4979014;28;20719;-48
2023/12/19 08:39:11;;;;;;;8.77;7.87;;;;;;;;;;4978890;28;20739;-49
2023/12/19 08:41:37;;;;;;;8.60;7.83;;;;;;;;;;4978921;28;20202;-48
2023/12/19 08:44:03;;;;;;;9.20;8.30;;;;;;;;;;4980663;28;20563;-49
2023/12/19 08:46:29;;;;;;;10.07;9.07;;;;;;;;;;4978957;28;20217;-49
2023/12/19 08:48:56;;;;;;;8.17;7.37;;;;;;;;;;4978832;28;20194;-49
2023/12/19 08:51:22;;;;;;;8.77;7.97;;;;;;;;;;4980095;28;20285;-49
2023/12/19 08:53:48;;;;;;;8.00;7.20;;;;;;;;;;4970892;28;20322;-48
2023/12/19 08:56:15;;;;;;;7.23;6.40;;;;;;;;;;4972728;28;20621;-48
2023/12/19 08:58:44;;;;;;;6.97;6.37;;;;;;;;;;4973064;28;20210;-49
2023/12/19 09:01:10;;;;;;;7.63;6.93;;;;;;;;;;4972922;28;20210;-48
2023/12/19 09:03:37;;;;;;;7.43;6.73;;;;;;;;;;4972802;28;20275;-48
2023/12/19 09:06:03;;;;;;;7.90;7.10;;;;;;;;;;4972584;28;20601;-48
2023/12/19 09:08:29;;;;;;;7.63;6.93;;;;;;;;;;4972685;28;20199;-48
2023/12/19 09:10:55;;;;;;;7.37;6.67;;;;;;;;;;4972856;28;20685;-48
2023/12/19 09:13:23;;;;;;;7.37;6.63;;;;;;;;;;4972546;28;20313;-48
2023/12/19 09:15:49;;;;;;;7.10;6.40;;;;;;;;;;4972938;28;20262;-49
2023/12/19 09:18:15;;;;;;;7.07;6.37;;;;;;;;;;4972399;28;20203;-48
2023/12/19 09:20:41;;;;;;;7.37;6.37;;;;;;;;;;4972773;28;20213;-48
2023/12/19 09:23:07;;;;;;;6.13;5.63;;;;;;;;;;4972669;28;20301;-48
2023/12/19 09:25:33;;;;;;;5.30;4.90;;;;;;;;;;4972687;28;20647;-47
2023/12/19 09:27:59;;;;;;;6.17;5.57;;;;;;;;;;4972727;28;20243;-47
2023/12/19 09:30:26;;;;;;;6.80;6.20;;;;;;;;;;4972398;28;20206;-47
2023/12/19 09:32:52;;;;;;;6.07;5.57;;;;;;;;;;4972612;28;20214;-47
2023/12/19 09:35:18;;;;;;;6.57;5.97;;;;;;;;;;4975972;28;20648;-48
2023/12/19 09:37:46;;;;;;;6.63;6.03;;;;;;;;;;4976276;28;20685;-48
2023/12/19 09:40:13;;;;;;;5.73;5.23;;;;;;;;;;4976339;28;20207;-49
2023/12/19 09:42:39;;;;;;;5.70;5.20;;;;;;;;;;4975872;28;20214;-48
2023/12/19 09:45:06;;;;;;;5.20;4.77;;;;;;;;;;4975996;28;20207;-48
2023/12/19 09:47:36;;;;;;;7.57;4.50;;;;;;;;;;4975454;28;20207;-48
2023/12/19 09:50:03;;;;;;;4.80;4.40;;;;;;;;;;4974594;28;20207;-49
2023/12/19 09:52:29;;;;;;;4.10;3.80;;;;;;;;;;4975685;28;20242;-49
2023/12/19 09:54:55;;;;;;;4.00;3.70;;;;;;;;;;4975412;28;20285;-49
2023/12/19 09:57:21;;;;;;;3.70;3.40;;;;;;;;;;4975648;28;20203;-50
2023/12/19 09:59:48;;;;;;;4.20;3.90;;;;;;;;;;4975780;28;20191;-50
2023/12/19 10:02:14;;;;;;;3.83;3.53;;;;;;;;;;4975496;28;20282;-49
2023/12/19 10:04:42;;;;;;;3.70;3.40;;;;;;;;;;4975826;28;20283;-50
2023/12/19 10:07:08;;;;;;;3.47;3.10;;;;;;;;;;4975310;28;20210;-49
2023/12/19 10:09:34;;;;;;;3.40;3.10;;;;;;;;;;4975440;28;20853;-49
2023/12/19 10:12:04;;;;;;;3.47;3.20;;;;;;;;;;4975301;28;20202;-49
2023/12/19 10:14:30;;;;;;;2.73;2.53;;;;;;;;;;4975419;28;20218;-49
2023/12/19 10:16:56;;;;;;;3.23;2.93;;;;;;;;;;4975388;28;20285;-49
2023/12/19 10:19:26;;;;;;;3.20;3.00;;;;;;;;;;4974972;28;20274;-50
2023/12/19 10:22:04;;;;;;;3.93;3.63;;;;;;;;;;4975479;28;20219;-49
2023/12/19 10:24:30;;;;;;;3.30;3.10;;;;;;;;;;4975133;28;20218;-49
2023/12/19 10:26:59;;;;;;;3.17;2.97;;;;;;;;;;4974940;28;20229;-49
2023/12/19 10:29:25;;;;;;;3.70;3.40;;;;;;;;;;4975013;28;20207;-49
2023/12/19 10:31:51;;;;;;;3.20;3.00;;;;;;;;;;4975029;28;20261;-50
2023/12/19 10:34:22;;;;;;;3.00;2.80;;;;;;;;;;4974897;28;20545;-49
2023/12/19 10:36:48;;;;;;;3.40;3.20;;;;;;;;;;4975214;28;20195;-50
2023/12/19 10:39:19;;;;;;;3.40;3.10;;;;;;;;;;4974638;28;20207;-50
2023/12/19 10:41:45;;;;;;;3.80;3.50;;;;;;;;;;4971564;28;20211;-49
2023/12/19 10:44:11;;;;;;;4.53;3.23;;;;;;;;;;4974655;28;20209;-49
2023/12/19 10:46:38;;;;;;;3.27;3.07;;;;;;;;;;4975159;28;20242;-49
2023/12/19 10:49:05;;;;;;;43.00;33.63;;;;;;;;;;4974839;28;20199;-49
2023/12/19 10:51:32;;;;;;;4.27;3.97;;;;;;;;;;4975057;28;20610;-49
2023/12/19 10:54:01;;;;;;;4.40;4.00;;;;;;;;;;4974772;28;20713;-50
2023/12/19 10:56:34;;;;;;;4.47;4.17;;;;;;;;;;4974549;28;20278;-49
2023/12/19 10:59:04;;;;;;;4.87;4.47;;;;;;;;;;4974737;28;20762;-49
2023/12/19 11:01:32;;;;;;;5.73;4.70;;;;;;;;;;4974850;28;20232;-49
2023/12/19 11:03:59;;;;;;;5.63;4.87;;;;;;;;;;4975055;28;20191;-49
2023/12/19 11:06:27;;;;;;;5.50;5.00;;;;;;;;;;4972927;28;20246;-49
2023/12/19 11:08:56;;;;;;;5.50;5.00;;;;;;;;;;4974700;28;20206;-49
2023/12/19 11:11:29;;;;;;;6.43;5.83;;;;;;;;;;4974354;28;20223;-49
2023/12/19 11:13:56;;;;;;;6.93;6.33;;;;;;;;;;4974633;28;20313;-49
2023/12/19 11:16:25;;;;;;;6.90;6.30;;;;;;;;;;4972683;28;20289;-49
2023/12/19 11:18:56;;;;;;;7.53;6.83;;;;;;;;;;4972500;28;20577;-49
2023/12/19 11:21:27;;;;;;;7.83;7.13;;;;;;;;;;4970799;28;20207;-49
2023/12/19 11:23:57;;;;;;;7.83;7.13;;;;;;;;;;4974306;28;20211;-50
2023/12/19 11:26:26;;;;;;;8.60;7.80;;;;;;;;;;4972507;28;20674;-49
2023/12/19 11:28:52;;;;;;;9.23;8.33;;;;;;;;;;4974190;28;20239;-50
2023/12/19 11:31:29;;;;;;;11.03;9.27;;;;;;;;;;4972446;28;20205;-49
2023/12/19 11:33:55;;;;;;;9.70;8.67;;;;;;;;;;4972472;28;20732;-49
2023/12/19 11:36:22;;;;;;;9.93;8.93;;;;;;;;;;4967214;28;20195;-49
2023/12/19 11:38:49;;;;;;;10.77;9.77;;;;;;;;;;4968872;28;20199;-49
2023/12/19 11:41:35;;;;;;;9.90;9.00;;;;;;;;;;4968790;28;20289;-49
2023/12/19 11:44:01;;;;;;;11.10;9.83;;;;;;;;;;4967238;28;20195;-49
2023/12/19 11:46:28;;;;;;;10.53;9.50;;;;;;;;;;4970532;28;20194;-49
2023/12/19 11:48:55;;;;;;;9.60;8.60;;;;;;;;;;4966886;28;20571;-49
2023/12/19 11:51:40;;;;;;;10.37;9.37;;;;;;;;;;4967108;28;20290;-49
2023/12/19 11:54:10;;;;;;;11.40;10.20;;;;;;;;;;4966860;28;20685;-48
2023/12/19 11:56:36;;;;;;;11.37;10.07;;;;;;;;;;4967544;28;20206;-48
2023/12/19 11:59:02;;;;;;;10.93;9.83;;;;;;;;;;4964757;28;20209;-48
2023/12/19 12:01:38;;;;;;;11.27;10.17;;;;;;;;;;4964967;28;20214;-48
2023/12/19 12:04:04;;;;;;;10.93;9.70;;;;;;;;;;4963723;28;20198;-48
2023/12/19 12:06:30;;;;;;;10.90;9.80;;;;;;;;;;4969817;28;20258;-48
2023/12/19 12:08:57;;;;;;;9.63;8.73;;;;;;;;;;4964953;28;20199;-48
2023/12/19 12:11:24;;;;;;;11.00;9.87;;;;;;;;;;4966367;28;20279;-48
2023/12/19 12:13:59;;;;;;;10.80;9.70;;;;;;;;;;4963209;28;20234;-48
2023/12/19 12:16:35;;;;;;;9.90;9.00;;;;;;;;;;4966442;28;20208;-49
2023/12/19 12:19:09;;;;;;;10.70;9.60;;;;;;;;;;4962910;28;20203;-48
2023/12/19 12:21:34;;;;;;;10.00;9.10;;;;;;;;;;4966615;28;20242;-49
2023/12/19 12:24:01;;;;;;;9.37;8.47;;;;;;;;;;4963379;28;20225;-48
2023/12/19 12:26:27;;;;;;;9.47;8.57;;;;;;;;;;4964760;28;20657;-49
2023/12/19 12:28:53;;;;;;;9.47;8.47;;;;;;;;;;4966171;28;20309;-49
2023/12/19 12:31:19;;;;;;;9.67;8.77;;;;;;;;;;4961127;28;20207;-49
2023/12/19 12:33:47;;;;;;;9.90;8.90;;;;;;;;;;4962914;28;20289;-49
2023/12/19 12:36:13;;;;;;;8.90;8.10;;;;;;;;;;4962926;28;20286;-49
2023/12/19 12:38:39;;;;;;;9.37;8.47;;;;;;;;;;4961258;28;20697;-48
2023/12/19 12:41:07;;;;;;;10.57;9.57;;;;;;;;;;4966161;28;20206;-49
2023/12/19 12:43:34;;;;;;;8.30;7.50;;;;;;;;;;4967756;28;20274;-48
2023/12/19 12:46:03;;;;;;;8.37;7.43;;;;;;;;;;4966225;28;20620;-48
2023/12/19 12:48:30;;;;;;;8.87;8.07;;;;;;;;;;4962627;28;20226;-49
2023/12/19 12:50:57;;;;;;;8.67;7.83;;;;;;;;;;4966234;28;20285;-48
2023/12/19 12:53:23;;;;;;;7.80;7.10;;;;;;;;;;4962016;28;20233;-49
2023/12/19 12:56:02;;;;;;;8.37;7.60;;;;;;;;;;4964136;28;20211;-49
2023/12/19 12:58:28;;;;;;;9.03;7.40;;;;;;;;;;4964391;28;20205;-50
2023/12/19 13:00:54;;;;;;;6.77;6.17;;;;;;;;;;4966103;28;20577;-49
2023/12/19 13:03:21;;;;;;;7.20;6.50;;;;;;;;;;4962606;28;20238;-49
2023/12/19 13:05:47;;;;;;;6.37;5.87;;;;;;;;;;4960791;28;20208;-49
2023/12/19 13:08:15;;;;;;;7.13;6.43;;;;;;;;;;4967880;28;20677;-49
2023/12/19 13:10:41;;;;;;;6.93;6.33;;;;;;;;;;4966336;28;20207;-48
2023/12/19 13:13:07;;;;;;;7.07;6.47;;;;;;;;;;4966393;28;20242;-48
2023/12/19 13:15:33;;;;;;;7.47;6.73;;;;;;;;;;4966218;28;20202;-48
2023/12/19 13:17:59;;;;;;;7.03;5.90;;;;;;;;;;4966273;28;20210;-48
2023/12/19 13:20:25;;;;;;;7.23;6.53;;;;;;;;;;4966246;28;20195;-49
2023/12/19 13:22:51;;;;;;;7.10;6.50;;;;;;;;;;4964337;28;20230;-48
2023/12/19 13:25:18;;;;;;;7.57;6.87;;;;;;;;;;4967469;28;20238;-48
2023/12/19 13:27:44;;;;;;;7.30;6.60;;;;;;;;;;4964230;28;20689;-48
2023/12/19 13:30:12;;;;;;;6.80;6.20;;;;;;;;;;4969669;28;20374;-48
2023/12/19 13:32:38;;;;;;;6.80;6.20;;;;;;;;;;4966379;28;20203;-49
2023/12/19 13:35:06;;;;;;;6.17;5.67;;;;;;;;;;4969321;28;20259;-49
2023/12/19 13:37:32;;;;;;;6.93;6.07;;;;;;;;;;4964299;28;20203;-49
2023/12/19 13:39:58;;;;;;;8.20;7.50;;;;;;;;;;4966136;28;20740;-49
2023/12/19 13:42:26;;;;;;;9.00;8.10;;;;;;;;;;4966105;28;20214;-49
2023/12/19 13:44:52;;;;;;;6.50;5.90;;;;;;;;;;4966057;28;20213;-49
2023/12/19 13:47:18;;;;;;;8.33;7.53;;;;;;;;;;4967528;28;20210;-49
2023/12/19 13:49:44;;;;;;;5.93;5.43;;;;;;;;;;4965726;28;20266;-49
2023/12/19 13:52:10;;;;;;;5.60;5.20;;;;;;;;;;4967815;28;20224;-49
2023/12/19 13:54:36;;;;;;;5.93;5.43;;;;;;;;;;4967323;28;20231;-49
2023/12/19 13:57:02;;;;;;;6.07;5.47;;;;;;;;;;4964108;28;20195;-48
2023/12/19 13:59:30;;;;;;;5.70;5.20;;;;;;;;;;4965779;28;20245;-49
2023/12/19 14:01:56;;;;;;;8.30;7.60;;;;;;;;;;4964302;28;20206;-48
2023/12/19 14:04:22;;;;;;;5.27;4.87;;;;;;;;;;4963819;28;20753;-48
2023/12/19 14:06:48;;;;;;;5.37;4.87;;;;;;;;;;4965555;28;20618;-48
2023/12/19 14:09:19;;;;;;;5.20;4.70;;;;;;;;;;4963830;28;20211;-48
2023/12/19 14:11:45;;;;;;;5.93;5.43;;;;;;;;;;4967153;28;20282;-48
2023/12/19 14:14:11;;;;;;;5.13;4.70;;;;;;;;;;4966624;28;20269;-48
2023/12/19 14:16:38;;;;;;;5.20;4.80;;;;;;;;;;4965265;28;20206;-48
2023/12/19 14:19:04;;;;;;;5.00;4.60;;;;;;;;;;4966215;28;20206;-48
2023/12/19 14:21:31;;;;;;;5.50;5.00;;;;;;;;;;4965583;28;20564;-49
2023/12/19 14:23:57;;;;;;;7.60;6.90;;;;;;;;;;4968507;28;20218;-49